createdAt,value
2024-01-27T00:00:53.979Z,5.88
2024-01-27T00:03:23.712Z,5.90
2024-01-27T00:05:53.978Z,6.01
2024-01-27T00:08:23.671Z,6.04
2024-01-27T00:10:53.354Z,6.00
2024-01-27T00:13:22.777Z,6.15
2024-01-27T00:15:52.880Z,6.11
2024-01-27T00:18:22.081Z,6.06
2024-01-27T00:20:51.769Z,6.26
2024-01-27T00:23:20.625Z,6.38
2024-01-27T00:25:50.166Z,6.42
2024-01-27T00:28:18.915Z,6.68
2024-01-27T00:30:47.832Z,6.93
2024-01-27T00:33:15.871Z,6.86
2024-01-27T00:35:44.579Z,7.03
2024-01-27T00:38:13.336Z,7.08
2024-01-27T00:40:42.518Z,7.07
2024-01-27T00:43:11.154Z,7.20
2024-01-27T00:45:40.296Z,7.23
2024-01-27T00:48:09.339Z,7.16
2024-01-27T00:50:38.143Z,7.28
2024-01-27T00:53:06.860Z,7.24
2024-01-27T00:55:34.586Z,7.28
2024-01-27T00:58:02.678Z,7.28
2024-01-27T01:00:30.595Z,7.25
2024-01-27T01:02:58.381Z,7.18
2024-01-27T01:05:26.211Z,7.14
2024-01-27T01:07:53.974Z,7.12
2024-01-27T01:10:22.687Z,6.94
2024-01-27T01:12:50.481Z,7.00
2024-01-27T01:15:18.379Z,6.97
2024-01-27T01:17:46.929Z,7.01
2024-01-27T01:20:14.919Z,6.90
2024-01-27T01:22:43.512Z,6.97
2024-01-27T01:25:12.042Z,6.99
2024-01-27T01:27:41.670Z,6.89
2024-01-27T01:30:10.790Z,6.97
2024-01-27T01:32:39.404Z,6.95
2024-01-27T01:35:08.183Z,6.88
2024-01-27T01:37:35.967Z,6.97
2024-01-27T01:40:05.242Z,6.88
2024-01-27T01:42:34.681Z,6.79
2024-01-27T01:45:02.608Z,6.72
2024-01-27T01:47:31.582Z,6.74
2024-01-27T01:50:00.302Z,6.76
2024-01-27T01:52:28.362Z,6.66
2024-01-27T01:54:56.930Z,6.68
2024-01-27T01:57:24.680Z,6.72
2024-01-27T01:59:53.585Z,6.69
2024-01-27T02:02:22.602Z,6.67
2024-01-27T02:04:50.445Z,6.63
2024-01-27T02:07:18.212Z,6.63
2024-01-27T02:09:46.796Z,6.68
2024-01-27T02:12:15.413Z,6.73
2024-01-27T02:14:45.904Z,6.58
2024-01-27T02:17:13.673Z,6.57
2024-01-27T02:19:42.316Z,6.63
2024-01-27T02:22:10.941Z,6.53
2024-01-27T02:24:39.424Z,6.52
2024-01-27T02:27:07.970Z,6.56
2024-01-27T02:29:36.556Z,6.65
2024-01-27T02:32:04.675Z,6.58
2024-01-27T02:34:33.297Z,6.53
2024-01-27T02:37:01.321Z,6.43
2024-01-27T02:39:29.113Z,6.41
2024-01-27T02:41:57.013Z,6.47
2024-01-27T02:44:25.564Z,6.50
2024-01-27T02:46:54.121Z,6.40
2024-01-27T02:49:22.016Z,6.45
2024-01-27T02:51:50.848Z,6.40
2024-01-27T02:54:18.645Z,6.51
2024-01-27T02:56:47.257Z,6.56
2024-01-27T02:59:15.873Z,6.32
2024-01-27T03:01:43.628Z,6.31
2024-01-27T03:04:12.299Z,6.37
2024-01-27T03:06:40.903Z,6.31
2024-01-27T03:09:09.596Z,6.28
2024-01-27T03:11:38.151Z,6.23
2024-01-27T03:14:06.748Z,6.25
2024-01-27T03:16:35.502Z,6.12
2024-01-27T03:19:04.153Z,6.20
2024-01-27T03:21:32.878Z,6.12
2024-01-27T03:24:00.699Z,6.14
2024-01-27T03:26:28.659Z,6.04
2024-01-27T03:28:56.445Z,6.02
2024-01-27T03:31:24.215Z,5.95
2024-01-27T03:33:52.143Z,5.99
2024-01-27T03:36:22.844Z,6.08
2024-01-27T03:38:51.360Z,6.05
2024-01-27T03:41:19.948Z,5.93
2024-01-27T03:43:48.497Z,5.82
2024-01-27T03:46:17.612Z,5.88
2024-01-27T03:48:46.268Z,5.98
2024-01-27T03:51:14.382Z,5.85
2024-01-27T03:53:42.214Z,5.87
2024-01-27T03:56:14.396Z,5.71
2024-01-27T03:58:42.198Z,5.70
2024-01-27T04:01:09.943Z,5.75
2024-01-27T04:03:37.702Z,5.76
2024-01-27T04:06:05.919Z,5.82
2024-01-27T04:08:33.683Z,5.60
2024-01-27T04:11:01.393Z,5.70
2024-01-27T04:13:29.153Z,5.64
2024-01-27T04:16:00.661Z,5.53
2024-01-27T04:18:28.425Z,5.49
2024-01-27T04:20:56.269Z,5.60
2024-01-27T04:23:24.853Z,5.49
2024-01-27T04:25:52.598Z,5.51
2024-01-27T04:28:21.131Z,5.50
2024-01-27T04:30:48.882Z,5.48
2024-01-27T04:33:17.505Z,5.47
2024-01-27T04:35:45.315Z,5.53
2024-01-27T04:38:13.076Z,5.50
2024-01-27T04:40:40.811Z,5.38
2024-01-27T04:43:08.849Z,5.49
2024-01-27T04:45:36.661Z,5.68
2024-01-27T04:48:05.196Z,5.53
2024-01-27T04:50:32.972Z,5.52
2024-01-27T04:53:00.756Z,5.63
2024-01-27T04:55:28.877Z,5.53
2024-01-27T04:57:56.589Z,5.52
2024-01-27T05:00:29.270Z,5.46
2024-01-27T05:02:58.796Z,5.32
2024-01-27T05:05:26.585Z,5.38
2024-01-27T05:07:55.090Z,5.55
2024-01-27T05:10:23.865Z,5.42
2024-01-27T05:12:52.520Z,5.38
2024-01-27T05:15:20.363Z,5.34
2024-01-27T05:17:48.179Z,5.36
2024-01-27T05:20:16.042Z,5.26
2024-01-27T05:22:44.079Z,5.21
2024-01-27T05:25:12.490Z,5.32
2024-01-27T05:27:40.591Z,5.15
2024-01-27T05:30:09.746Z,5.14
2024-01-27T05:32:37.651Z,5.31
2024-01-27T05:35:06.649Z,5.12
2024-01-27T05:37:34.426Z,5.03
2024-01-27T05:40:02.230Z,5.22
2024-01-27T05:42:29.967Z,5.08
2024-01-27T05:44:58.630Z,5.18
2024-01-27T05:47:26.401Z,5.11
2024-01-27T05:49:55.034Z,5.23
2024-01-27T05:52:25.171Z,5.17
2024-01-27T05:54:54.504Z,5.10
2024-01-27T05:57:23.390Z,5.14
2024-01-27T05:59:51.309Z,5.06
2024-01-27T06:02:19.596Z,5.06
2024-01-27T06:04:47.898Z,4.92
2024-01-27T06:07:16.745Z,4.99
2024-01-27T06:09:44.585Z,5.12
2024-01-27T06:12:13.116Z,4.92
2024-01-27T06:14:42.354Z,4.99
2024-01-27T06:17:10.927Z,5.07
2024-01-27T06:19:40.042Z,5.15
2024-01-27T06:22:08.768Z,4.86
2024-01-27T06:24:43.009Z,4.84
2024-01-27T06:27:10.841Z,4.94
2024-01-27T06:29:41.305Z,5.09
2024-01-27T06:32:12.243Z,5.05
2024-01-27T06:34:41.227Z,5.02
2024-01-27T06:37:09.918Z,5.03
2024-01-27T06:39:38.511Z,5.16
2024-01-27T06:42:06.389Z,5.09
2024-01-27T06:44:34.069Z,5.17
2024-01-27T06:47:01.818Z,5.21
2024-01-27T06:49:30.577Z,5.27
2024-01-27T06:51:58.429Z,5.05
2024-01-27T06:54:26.193Z,5.53
2024-01-27T06:56:54.031Z,5.69
2024-01-27T06:59:21.753Z,5.90
2024-01-27T07:01:50.096Z,5.68
2024-01-27T07:04:19.285Z,7.02
2024-01-27T07:06:48.144Z,8.25
2024-01-27T07:09:16.758Z,9.25
2024-01-27T07:11:44.504Z,10.08
2024-01-27T07:14:12.193Z,10.24
2024-01-27T07:16:39.867Z,9.82
2024-01-27T07:19:08.441Z,10.03
2024-01-27T07:21:36.244Z,10.76
2024-01-27T07:24:04.661Z,10.04
2024-01-27T07:26:36.005Z,11.24
2024-01-27T07:29:03.764Z,11.36
2024-01-27T07:31:33.331Z,9.67
2024-01-27T07:34:01.178Z,10.13
2024-01-27T07:36:33.803Z,6.45
2024-01-27T07:39:02.730Z,5.98
2024-01-27T07:41:32.222Z,6.10
2024-01-27T07:44:12.691Z,6.00
2024-01-27T07:46:42.994Z,6.06
2024-01-27T07:49:13.071Z,6.23
2024-01-27T07:51:41.642Z,6.11
2024-01-27T07:54:10.324Z,6.22
2024-01-27T07:56:40.164Z,6.59
2024-01-27T07:59:15.175Z,6.56
2024-01-27T08:01:44.017Z,6.33
2024-01-27T08:04:12.263Z,6.54
2024-01-27T08:06:52.758Z,6.79
2024-01-27T08:09:21.035Z,6.54
2024-01-27T08:11:54.326Z,6.73
2024-01-27T08:14:22.576Z,6.77
2024-01-27T08:16:51.356Z,6.62
2024-01-27T08:19:22.150Z,6.74
2024-01-27T08:21:51.202Z,6.67
2024-01-27T08:24:20.868Z,6.81
2024-01-27T08:26:49.581Z,6.76
2024-01-27T08:29:17.277Z,6.82
2024-01-27T08:31:45.888Z,6.93
2024-01-27T08:34:16.738Z,6.99
2024-01-27T08:36:45.465Z,7.00
2024-01-27T08:39:14.686Z,7.23
2024-01-27T08:41:42.367Z,7.19
2024-01-27T08:44:11.894Z,7.40
2024-01-27T08:46:40.426Z,7.23
2024-01-27T08:49:09.184Z,7.13
2024-01-27T08:51:37.042Z,7.32
2024-01-27T08:54:04.880Z,7.59
2024-01-27T08:56:32.712Z,7.78
2024-01-27T08:59:00.466Z,7.77
2024-01-27T09:01:29.054Z,7.61
2024-01-27T09:03:57.661Z,7.33
2024-01-27T09:06:29.542Z,7.39
2024-01-27T09:09:00.170Z,7.70
2024-01-27T09:11:31.550Z,7.59
2024-01-27T09:14:00.144Z,7.56
2024-01-27T09:16:28.693Z,7.66
2024-01-27T09:18:58.425Z,7.56
2024-01-27T09:21:30.042Z,7.48
2024-01-27T09:23:58.919Z,7.45
2024-01-27T09:26:26.694Z,7.35
2024-01-27T09:28:57.575Z,7.43
2024-01-27T09:31:27.271Z,7.67
2024-01-27T09:33:56.408Z,7.70
2024-01-27T09:36:26.260Z,7.57
2024-01-27T09:38:55.895Z,7.63
2024-01-27T09:41:23.868Z,7.93
2024-01-27T09:43:56.276Z,8.03
2024-01-27T09:46:24.844Z,7.75
2024-01-27T09:48:55.139Z,7.86
2024-01-27T09:51:24.222Z,7.81
2024-01-27T09:53:53.823Z,7.60
2024-01-27T09:56:23.044Z,7.76
2024-01-27T09:58:56.603Z,7.61
2024-01-27T10:01:27.253Z,7.82
2024-01-27T10:03:57.082Z,7.92
2024-01-27T10:06:27.064Z,7.84
2024-01-27T10:08:57.689Z,7.68
2024-01-27T10:11:26.226Z,7.97
2024-01-27T10:14:03.783Z,7.83
2024-01-27T10:16:45.973Z,7.87
2024-01-27T10:19:19.106Z,8.39
2024-01-27T10:21:48.447Z,8.39
2024-01-27T10:24:17.784Z,8.24
2024-01-27T10:26:45.569Z,8.46
2024-01-27T10:29:13.556Z,8.47
2024-01-27T10:31:41.366Z,8.42
2024-01-27T10:34:16.569Z,8.23
2024-01-27T10:36:46.800Z,8.27
2024-01-27T10:39:25.525Z,8.27
2024-01-27T10:41:54.042Z,8.36
2024-01-27T10:44:23.213Z,8.67
2024-01-27T10:46:52.960Z,8.67
2024-01-27T10:49:21.556Z,8.40
2024-01-27T10:52:05.227Z,8.53
2024-01-27T10:54:35.666Z,8.93
2024-01-27T10:57:04.380Z,9.78
2024-01-27T10:59:33.948Z,9.41
2024-01-27T11:02:04.459Z,8.57
2024-01-27T11:04:37.674Z,8.36
2024-01-27T11:07:08.330Z,8.17
2024-01-27T11:09:40.725Z,8.21
2024-01-27T11:12:11.892Z,8.06
2024-01-27T11:14:42.273Z,8.01
2024-01-27T11:17:11.194Z,8.44
2024-01-27T11:19:42.074Z,7.93
2024-01-27T11:22:18.370Z,7.97
2024-01-27T11:24:46.175Z,8.23
2024-01-27T11:27:15.998Z,7.84
2024-01-27T11:29:52.973Z,8.10
2024-01-27T11:32:20.692Z,7.85
2024-01-27T11:34:49.997Z,8.29
2024-01-27T11:37:26.169Z,7.98
2024-01-27T11:39:54.544Z,7.85
2024-01-27T11:42:23.105Z,8.05
2024-01-27T11:44:51.636Z,7.83
2024-01-27T11:47:20.992Z,7.76
2024-01-27T11:49:58.379Z,7.98
2024-01-27T11:52:26.863Z,7.78
2024-01-27T11:55:02.504Z,7.80
2024-01-27T11:57:31.179Z,7.66
2024-01-27T11:59:59.089Z,7.62
2024-01-27T12:02:26.948Z,7.64
2024-01-27T12:04:56.861Z,7.52
2024-01-27T12:07:28.418Z,7.56
2024-01-27T12:09:57.228Z,7.45
2024-01-27T12:12:25.088Z,7.67
2024-01-27T12:14:53.860Z,8.11
2024-01-27T12:17:25.513Z,8.16
2024-01-27T12:19:57.735Z,8.05
2024-01-27T12:22:31.062Z,8.26
2024-01-27T12:25:13.267Z,7.94
2024-01-27T12:27:42.879Z,8.31
2024-01-27T12:30:11.920Z,7.93
2024-01-27T12:32:40.100Z,7.93
2024-01-27T12:35:09.746Z,7.65
2024-01-27T12:37:38.890Z,7.81
2024-01-27T12:40:23.912Z,8.00
2024-01-27T12:42:53.021Z,7.70
2024-01-27T12:45:20.978Z,7.85
2024-01-27T12:47:50.761Z,7.88
2024-01-27T12:50:18.984Z,7.74
2024-01-27T12:52:46.944Z,7.94
2024-01-27T12:55:16.080Z,8.05
2024-01-27T12:57:46.704Z,8.15
2024-01-27T13:00:16.651Z,8.22
2024-01-27T13:02:44.679Z,7.92
2024-01-27T13:05:12.522Z,7.68
2024-01-27T13:07:40.551Z,7.96
2024-01-27T13:10:08.851Z,7.88
2024-01-27T13:12:36.890Z,7.82
2024-01-27T13:15:07.250Z,7.72
2024-01-27T13:17:35.221Z,7.67
2024-01-27T13:20:07.586Z,7.56
2024-01-27T13:22:36.800Z,7.40
2024-01-27T13:25:09.067Z,7.19
2024-01-27T13:27:38.055Z,7.38
2024-01-27T13:30:07.024Z,7.40
2024-01-27T13:32:34.884Z,7.51
2024-01-27T13:35:02.697Z,7.61
2024-01-27T13:37:34.900Z,7.39
2024-01-27T13:40:05.777Z,7.33
2024-01-27T13:42:33.635Z,7.45
2024-01-27T13:45:02.368Z,7.41
2024-01-27T13:47:31.181Z,7.47
2024-01-27T13:50:00.438Z,7.28
2024-01-27T13:52:30.631Z,7.26
2024-01-27T13:54:59.167Z,7.20
2024-01-27T13:57:27.894Z,7.45
2024-01-27T13:59:55.778Z,7.54
2024-01-27T14:02:25.067Z,7.43
2024-01-27T14:04:53.852Z,7.18
2024-01-27T14:07:24.043Z,7.23
2024-01-27T14:09:52.669Z,7.21
2024-01-27T14:12:21.219Z,7.08
2024-01-27T14:14:52.375Z,7.09
2024-01-27T14:17:21.977Z,6.95
2024-01-27T14:19:50.795Z,6.77
2024-01-27T14:22:18.675Z,6.76
2024-01-27T14:24:47.207Z,6.89
2024-01-27T14:27:15.436Z,6.72
2024-01-27T14:29:43.327Z,6.73
2024-01-27T14:32:13.048Z,6.62
2024-01-27T14:34:41.749Z,6.65
2024-01-27T14:37:11.231Z,6.66
2024-01-27T14:39:46.132Z,6.68
2024-01-27T14:42:15.622Z,6.77
2024-01-27T14:44:45.134Z,6.53
2024-01-27T14:47:14.213Z,6.60
2024-01-27T14:49:45.192Z,6.53
2024-01-27T14:52:13.484Z,6.54
2024-01-27T14:54:41.759Z,6.62
2024-01-27T14:57:10.941Z,6.46
2024-01-27T14:59:40.672Z,6.52
2024-01-27T15:02:11.141Z,6.51
2024-01-27T15:04:39.245Z,6.50
2024-01-27T15:07:09.265Z,6.66
2024-01-27T15:09:37.330Z,6.77
2024-01-27T15:12:07.021Z,6.71
2024-01-27T15:14:34.908Z,6.68
2024-01-27T15:17:02.866Z,6.35
2024-01-27T15:19:40.075Z,6.49
2024-01-27T15:22:10.198Z,6.51
2024-01-27T15:24:39.581Z,6.46
2024-01-27T15:27:11.882Z,6.18
2024-01-27T15:29:41.289Z,6.28
2024-01-27T15:32:09.883Z,6.20
2024-01-27T15:34:37.745Z,6.24
2024-01-27T15:37:05.940Z,6.23
2024-01-27T15:39:34.053Z,6.26
2024-01-27T15:42:05.368Z,6.29
2024-01-27T15:44:33.518Z,6.25
2024-01-27T15:47:01.611Z,6.10
2024-01-27T15:49:30.303Z,6.29
2024-01-27T15:51:58.919Z,6.09
2024-01-27T15:54:27.611Z,6.02
2024-01-27T15:56:58.273Z,6.12
2024-01-27T15:59:29.555Z,6.23
2024-01-27T16:02:00.102Z,6.07
2024-01-27T16:04:30.453Z,6.03
2024-01-27T16:06:59.140Z,6.06
2024-01-27T16:09:29.951Z,6.21
2024-01-27T16:11:58.984Z,6.04
2024-01-27T16:14:28.510Z,6.15
2024-01-27T16:16:56.197Z,6.01
2024-01-27T16:19:24.894Z,6.10
2024-01-27T16:21:54.689Z,6.09
2024-01-27T16:24:22.535Z,5.99
2024-01-27T16:26:51.398Z,6.06
2024-01-27T16:29:19.323Z,6.05
2024-01-27T16:31:47.182Z,6.00
2024-01-27T16:34:15.875Z,6.14
2024-01-27T16:36:43.806Z,6.18
2024-01-27T16:39:12.138Z,6.24
2024-01-27T16:41:40.806Z,6.14
2024-01-27T16:44:09.438Z,6.10
2024-01-27T16:46:41.416Z,6.26
2024-01-27T16:49:09.500Z,6.36
2024-01-27T16:51:37.474Z,6.04
2024-01-27T16:54:08.093Z,6.01
2024-01-27T16:56:36.652Z,6.11
2024-01-27T16:59:06.534Z,6.04
2024-01-27T17:01:36.271Z,5.91
2024-01-27T17:04:06.303Z,5.87
2024-01-27T17:06:35.576Z,5.89
2024-01-27T17:09:05.303Z,5.96
2024-01-27T17:11:34.939Z,5.92
2024-01-27T17:14:03.613Z,5.90
2024-01-27T17:16:32.373Z,5.82
2024-01-27T17:19:02.278Z,5.88
2024-01-27T17:21:31.192Z,5.85
2024-01-27T17:23:59.997Z,5.81
2024-01-27T17:26:29.337Z,5.60
2024-01-27T17:29:00.698Z,5.57
2024-01-27T17:31:29.316Z,5.69
2024-01-27T17:33:57.821Z,5.54
2024-01-27T17:36:27.416Z,5.63
2024-01-27T17:38:55.939Z,5.41
2024-01-27T17:41:23.738Z,5.56
2024-01-27T17:43:51.472Z,5.51
2024-01-27T17:46:19.257Z,5.61
2024-01-27T17:48:47.990Z,5.50
2024-01-27T17:51:15.888Z,5.54
2024-01-27T17:53:44.660Z,5.59
2024-01-27T17:56:20.713Z,5.73
2024-01-27T17:58:48.550Z,5.38
2024-01-27T18:01:17.300Z,5.37
2024-01-27T18:03:47.401Z,5.54
2024-01-27T18:06:15.591Z,5.29
2024-01-27T18:08:45.263Z,5.39
2024-01-27T18:11:14.040Z,5.49
2024-01-27T18:13:47.741Z,5.45
2024-01-27T18:16:17.650Z,5.47
2024-01-27T18:18:47.543Z,5.56
2024-01-27T18:21:16.284Z,5.56
2024-01-27T18:23:47.048Z,5.32
2024-01-27T18:26:16.643Z,5.41
2024-01-27T18:28:44.611Z,5.27
2024-01-27T18:31:16.052Z,5.36
2024-01-27T18:33:47.396Z,5.37
2024-01-27T18:36:18.612Z,5.23
2024-01-27T18:38:48.247Z,5.30
2024-01-27T18:41:16.994Z,5.25
2024-01-27T18:43:44.765Z,5.57
2024-01-27T18:46:14.460Z,5.15
2024-01-27T18:48:44.877Z,5.12
2024-01-27T18:51:14.610Z,5.07
2024-01-27T18:53:44.154Z,5.56
2024-01-27T18:56:14.493Z,5.07
2024-01-27T18:58:42.302Z,4.75
2024-01-27T19:01:13.124Z,5.34
2024-01-27T19:03:41.554Z,5.18
2024-01-27T19:06:09.548Z,4.97
2024-01-27T19:08:37.646Z,5.19
2024-01-27T19:11:06.404Z,5.22
2024-01-27T19:13:35.997Z,4.96
2024-01-27T19:16:04.884Z,5.15
2024-01-27T19:18:34.339Z,5.02
2024-01-27T19:21:02.149Z,5.00
2024-01-27T19:23:33.332Z,4.90
2024-01-27T19:26:01.562Z,4.93
2024-01-27T19:28:29.422Z,4.94
2024-01-27T19:30:57.263Z,5.05
2024-01-27T19:33:25.269Z,4.95
2024-01-27T19:35:53.021Z,5.29
2024-01-27T19:38:23.802Z,4.97
2024-01-27T19:41:02.881Z,4.93
2024-01-27T19:43:42.280Z,5.04
2024-01-27T19:46:14.758Z,4.91
2024-01-27T19:48:43.532Z,5.09
2024-01-27T19:51:11.992Z,5.04
2024-01-27T19:53:40.571Z,4.78
2024-01-27T19:56:11.088Z,4.71
2024-01-27T19:58:38.984Z,4.73
2024-01-27T20:01:07.145Z,4.82
2024-01-27T20:03:35.826Z,4.79
2024-01-27T20:06:06.052Z,4.73
2024-01-27T20:08:33.937Z,4.68
2024-01-27T20:11:02.534Z,4.73
2024-01-27T20:13:30.238Z,4.68
2024-01-27T20:15:58.245Z,4.66
2024-01-27T20:18:26.977Z,4.76
2024-01-27T20:20:54.799Z,4.49
2024-01-27T20:23:23.548Z,4.53
2024-01-27T20:25:52.796Z,4.51
2024-01-27T20:28:23.217Z,4.50
2024-01-27T20:30:54.095Z,4.62
2024-01-27T20:33:31.446Z,4.54
2024-01-27T20:36:07.265Z,4.60
2024-01-27T20:38:35.155Z,4.53
2024-01-27T20:41:03.759Z,4.43
2024-01-27T20:43:31.492Z,4.33
2024-01-27T20:46:03.118Z,4.33
2024-01-27T20:48:31.965Z,4.55
2024-01-27T20:51:00.175Z,4.43
2024-01-27T20:53:27.940Z,4.42
2024-01-27T20:55:56.659Z,4.50
2024-01-27T20:58:29.500Z,4.37
2024-01-27T21:00:58.266Z,4.54
2024-01-27T21:03:27.043Z,4.46
2024-01-27T21:05:54.892Z,4.52
2024-01-27T21:08:22.700Z,4.28
2024-01-27T21:10:50.642Z,4.36
2024-01-27T21:13:20.264Z,4.23
2024-01-27T21:15:48.962Z,4.23
2024-01-27T21:18:17.720Z,4.18
2024-01-27T21:20:46.513Z,4.10
2024-01-27T21:23:14.423Z,4.28
2024-01-27T21:25:45.581Z,4.20
2024-01-27T21:28:13.418Z,4.01
2024-01-27T21:30:41.248Z,4.05
2024-01-27T21:33:11.096Z,4.14
2024-01-27T21:35:39.719Z,4.15
2024-01-27T21:38:07.749Z,4.04
2024-01-27T21:40:42.246Z,3.93
2024-01-27T21:43:11.611Z,4.14
2024-01-27T21:45:41.085Z,4.05
2024-01-27T21:48:09.879Z,4.06
2024-01-27T21:50:37.891Z,4.11
2024-01-27T21:53:07.014Z,3.84
2024-01-27T21:55:36.585Z,4.03
2024-01-27T21:58:05.487Z,4.04
2024-01-27T22:00:36.072Z,4.13
2024-01-27T22:03:04.508Z,4.13
2024-01-27T22:05:32.497Z,4.00
2024-01-27T22:08:04.834Z,4.06
2024-01-27T22:10:33.479Z,3.92
2024-01-27T22:13:03.122Z,4.00
2024-01-27T22:15:30.978Z,3.98
2024-01-27T22:17:58.992Z,3.85
2024-01-27T22:20:29.562Z,3.88
2024-01-27T22:22:57.639Z,3.88
2024-01-27T22:25:26.874Z,3.93
2024-01-27T22:27:55.444Z,3.87
2024-01-27T22:30:23.707Z,3.74
2024-01-27T22:32:53.390Z,3.68
2024-01-27T22:35:21.384Z,3.62
2024-01-27T22:37:49.999Z,3.79
2024-01-27T22:40:18.643Z,3.71
2024-01-27T22:42:46.423Z,3.76
2024-01-27T22:45:14.670Z,3.73
2024-01-27T22:47:42.466Z,3.67
2024-01-27T22:50:13.008Z,3.45
2024-01-27T22:52:41.560Z,3.52
2024-01-27T22:55:09.806Z,3.65
2024-01-27T22:57:38.433Z,3.74
2024-01-27T23:00:25.388Z,3.62
2024-01-27T23:02:55.044Z,3.72
2024-01-27T23:05:22.898Z,3.55
2024-01-27T23:07:54.144Z,3.56
2024-01-27T23:10:22.447Z,3.61
2024-01-27T23:12:50.704Z,3.74
2024-01-27T23:15:19.659Z,3.67
2024-01-27T23:17:48.403Z,3.72
2024-01-27T23:20:16.785Z,3.68
2024-01-27T23:22:44.579Z,3.47
2024-01-27T23:25:12.290Z,3.69
2024-01-27T23:27:40.640Z,3.51
2024-01-27T23:30:11.202Z,3.69
2024-01-27T23:32:39.198Z,3.64
2024-01-27T23:35:08.837Z,3.65
2024-01-27T23:37:38.994Z,3.44
2024-01-27T23:40:08.806Z,3.51
2024-01-27T23:42:39.842Z,3.28
2024-01-27T23:45:09.818Z,3.46
2024-01-27T23:47:37.923Z,3.51
2024-01-27T23:50:07.310Z,3.45
2024-01-27T23:52:39.542Z,3.52
2024-01-27T23:55:07.915Z,3.30
2024-01-27T23:57:35.831Z,3.45
